createdAt,value
2022-08-23T00:02:26.386Z,53.41
2022-08-23T00:05:08.687Z,53.60
2022-08-23T00:07:41.758Z,53.38
2022-08-23T00:10:14.393Z,54.89
2022-08-23T00:12:40.989Z,53.82
2022-08-23T00:15:08.896Z,53.69
2022-08-23T00:17:36.358Z,52.82
2022-08-23T00:20:09.878Z,54.40
2022-08-23T00:22:38.187Z,53.43
2022-08-23T00:25:07.165Z,52.89
2022-08-23T00:27:35.049Z,53.25
2022-08-23T00:30:03.001Z,52.98
2022-08-23T00:32:32.978Z,52.83
2022-08-23T00:35:00.648Z,52.31
2022-08-23T00:37:32.100Z,53.01
2022-08-23T00:40:00.038Z,52.38
2022-08-23T00:42:50.709Z,52.58
2022-08-23T00:45:41.628Z,52.85
2022-08-23T00:48:08.494Z,52.23
2022-08-23T00:50:42.637Z,52.91
2022-08-23T00:53:38.060Z,52.71
2022-08-23T00:56:09.032Z,52.92
2022-08-23T00:58:36.159Z,52.61
2022-08-23T01:01:06.184Z,52.74
2022-08-23T01:03:38.717Z,52.82
2022-08-23T01:06:16.977Z,53.05
2022-08-23T01:08:48.756Z,53.03
2022-08-23T01:11:32.894Z,52.60
2022-08-23T01:14:11.931Z,52.94
2022-08-23T01:16:46.163Z,52.46
2022-08-23T01:19:21.872Z,52.46
2022-08-23T01:22:02.299Z,52.89
2022-08-23T01:25:05.972Z,53.43
2022-08-23T01:27:15.890Z,52.81
2022-08-23T01:29:42.512Z,53.01
2022-08-23T01:32:09.858Z,53.38
2022-08-23T01:34:37.043Z,53.50
2022-08-23T01:37:11.500Z,53.12
2022-08-23T01:39:38.359Z,53.30
2022-08-23T01:42:07.544Z,52.94
2022-08-23T01:44:34.905Z,53.55
2022-08-23T01:47:01.356Z,53.82
2022-08-23T01:49:27.875Z,53.25
2022-08-23T01:51:55.514Z,53.17
2022-08-23T01:54:22.215Z,53.56
2022-08-23T01:56:49.174Z,53.46
2022-08-23T01:59:15.690Z,53.70
2022-08-23T02:01:42.255Z,53.84
2022-08-23T02:04:08.867Z,53.50
2022-08-23T02:06:35.358Z,53.49
2022-08-23T02:09:03.562Z,53.10
2022-08-23T02:11:42.480Z,53.58
2022-08-23T02:14:12.757Z,54.33
2022-08-23T02:16:53.733Z,53.62
2022-08-23T02:19:31.125Z,53.82
2022-08-23T02:21:57.646Z,53.66
2022-08-23T02:24:25.334Z,53.94
2022-08-23T02:26:56.672Z,53.66
2022-08-23T02:29:25.876Z,54.42
2022-08-23T02:31:52.537Z,54.01
2022-08-23T02:34:19.907Z,54.60
2022-08-23T02:36:47.496Z,54.47
2022-08-23T02:39:16.065Z,54.35
2022-08-23T02:41:42.857Z,55.11
2022-08-23T02:44:10.970Z,54.82
2022-08-23T02:46:38.698Z,54.41
2022-08-23T02:49:05.339Z,54.10
2022-08-23T02:51:32.916Z,54.59
2022-08-23T02:53:59.423Z,54.06
2022-08-23T02:56:25.901Z,54.59
2022-08-23T02:58:54.404Z,55.74
2022-08-23T03:01:39.993Z,55.19
2022-08-23T03:04:09.398Z,55.07
2022-08-23T03:06:36.358Z,55.12
2022-08-23T03:09:05.038Z,55.07
2022-08-23T03:11:31.744Z,55.36
2022-08-23T03:13:58.420Z,55.36
2022-08-23T03:16:25.428Z,56.11
2022-08-23T03:18:52.326Z,56.02
2022-08-23T03:21:20.785Z,55.64
2022-08-23T03:23:48.513Z,56.55
2022-08-23T03:26:16.129Z,56.89
2022-08-23T03:28:44.709Z,57.29
2022-08-23T03:31:13.013Z,57.43
2022-08-23T03:33:40.334Z,58.07
2022-08-23T03:36:10.472Z,57.62
2022-08-23T03:38:39.416Z,58.46
2022-08-23T03:41:06.598Z,57.99
2022-08-23T03:43:34.565Z,59.10
2022-08-23T03:46:01.047Z,59.85
2022-08-23T03:48:27.633Z,59.46
2022-08-23T03:50:54.950Z,60.12
2022-08-23T03:53:23.698Z,59.42
2022-08-23T03:55:53.249Z,60.53
2022-08-23T03:58:21.559Z,61.11
2022-08-23T04:00:48.316Z,61.46
2022-08-23T04:03:14.905Z,61.41
2022-08-23T04:05:41.424Z,60.80
2022-08-23T04:08:10.055Z,61.50
2022-08-23T04:10:39.168Z,61.00
2022-08-23T04:13:07.344Z,61.57
2022-08-23T04:15:33.877Z,61.67
2022-08-23T04:18:01.691Z,61.55
2022-08-23T04:20:29.002Z,61.73
2022-08-23T04:22:56.510Z,61.95
2022-08-23T04:25:32.853Z,62.70
2022-08-23T04:28:02.932Z,63.16
2022-08-23T04:30:29.770Z,63.06
2022-08-23T04:32:56.282Z,62.88
2022-08-23T04:35:23.744Z,63.36
2022-08-23T04:37:50.624Z,63.82
2022-08-23T04:40:36.271Z,64.01
2022-08-23T04:43:03.799Z,64.60
2022-08-23T04:45:32.492Z,64.70
2022-08-23T04:47:59.252Z,64.88
2022-08-23T04:50:26.147Z,65.74
2022-08-23T04:52:53.042Z,65.69
2022-08-23T04:55:19.824Z,66.22
2022-08-23T04:57:46.330Z,66.56
2022-08-23T05:00:15.079Z,65.87
2022-08-23T05:02:41.770Z,66.43
2022-08-23T05:05:11.057Z,67.44
2022-08-23T05:07:42.731Z,67.52
2022-08-23T05:10:12.849Z,66.91
2022-08-23T05:12:39.698Z,66.69
2022-08-23T05:15:06.902Z,66.19
2022-08-23T05:17:33.374Z,66.77
2022-08-23T05:19:59.859Z,65.73
2022-08-23T05:22:26.493Z,65.74
2022-08-23T05:24:53.010Z,64.84
2022-08-23T05:27:19.482Z,64.66
2022-08-23T05:29:46.461Z,63.70
2022-08-23T05:32:13.060Z,63.57
2022-08-23T05:34:39.661Z,64.67
2022-08-23T05:37:06.162Z,63.39
2022-08-23T05:39:36.440Z,64.06
2022-08-23T05:42:04.792Z,63.80
2022-08-23T05:44:36.174Z,64.78
2022-08-23T05:47:11.265Z,64.04
2022-08-23T05:49:39.513Z,63.79
2022-08-23T05:52:07.885Z,63.31
2022-08-23T05:54:35.269Z,64.38
2022-08-23T05:57:03.233Z,61.98
2022-08-23T05:59:30.049Z,61.10
2022-08-23T06:01:57.352Z,61.48
2022-08-23T06:04:23.959Z,61.51
2022-08-23T06:06:50.487Z,60.63
2022-08-23T06:09:18.245Z,60.75
2022-08-23T06:11:48.530Z,61.64
2022-08-23T06:14:15.553Z,60.58
2022-08-23T06:16:46.436Z,60.97
2022-08-23T06:19:14.351Z,61.33
2022-08-23T06:21:41.792Z,60.36
2022-08-23T06:24:08.434Z,61.05
2022-08-23T06:26:38.893Z,60.29
2022-08-23T06:29:09.335Z,60.75
2022-08-23T06:31:47.344Z,60.43
2022-08-23T06:34:21.761Z,59.35
2022-08-23T06:36:52.814Z,59.37
2022-08-23T06:39:21.206Z,59.73
2022-08-23T06:41:50.496Z,58.61
2022-08-23T06:44:18.844Z,58.89
2022-08-23T06:46:47.873Z,59.70
2022-08-23T06:49:14.813Z,61.17
2022-08-23T06:51:46.000Z,59.48
2022-08-23T06:54:15.240Z,57.79
2022-08-23T06:56:43.542Z,58.40
2022-08-23T06:59:10.319Z,58.75
2022-08-23T07:01:46.352Z,56.73
2022-08-23T07:04:17.961Z,55.36
2022-08-23T07:06:44.682Z,58.40
2022-08-23T07:09:11.500Z,55.60
2022-08-23T07:11:39.377Z,54.89
2022-08-23T07:14:10.434Z,53.90
2022-08-23T07:16:48.054Z,54.92
2022-08-23T07:19:15.297Z,55.81
2022-08-23T07:21:43.022Z,54.78
2022-08-23T07:24:10.078Z,56.96
2022-08-23T07:26:39.155Z,54.37
2022-08-23T07:29:09.965Z,54.45
2022-08-23T07:31:42.162Z,55.49
2022-08-23T07:34:09.037Z,56.16
2022-08-23T07:36:39.134Z,53.30
2022-08-23T07:39:07.530Z,55.00
2022-08-23T07:41:35.670Z,54.14
2022-08-23T07:44:04.455Z,54.72
2022-08-23T07:46:33.211Z,53.54
2022-08-23T07:49:01.799Z,53.38
2022-08-23T07:51:31.631Z,52.92
2022-08-23T07:53:58.697Z,55.26
2022-08-23T07:56:25.169Z,52.99
2022-08-23T07:58:52.026Z,52.57
2022-08-23T08:01:23.463Z,51.98
2022-08-23T08:03:55.145Z,52.13
2022-08-23T08:06:46.157Z,53.01
2022-08-23T08:09:14.617Z,52.48
2022-08-23T08:11:44.183Z,53.08
2022-08-23T08:14:11.598Z,53.19
2022-08-23T08:16:45.523Z,51.70
2022-08-23T08:19:15.302Z,52.54
2022-08-23T08:21:42.869Z,52.54
2022-08-23T08:24:10.556Z,52.41
2022-08-23T08:26:37.377Z,52.17
2022-08-23T08:29:04.334Z,52.80
2022-08-23T08:31:30.891Z,51.12
2022-08-23T08:33:57.695Z,50.72
2022-08-23T08:36:44.008Z,49.90
2022-08-23T08:39:14.396Z,49.23
2022-08-23T08:41:57.450Z,49.70
2022-08-23T08:44:52.188Z,49.05
2022-08-23T08:47:37.286Z,48.80
2022-08-23T08:50:06.578Z,49.52
2022-08-23T08:52:36.818Z,50.67
2022-08-23T08:55:19.538Z,51.37
2022-08-23T08:57:48.246Z,47.89
2022-08-23T09:00:31.571Z,48.44
2022-08-23T09:03:00.762Z,47.79
2022-08-23T09:05:31.688Z,47.71
2022-08-23T09:08:42.171Z,48.09
2022-08-23T09:11:22.478Z,49.45
2022-08-23T09:14:20.012Z,46.37
2022-08-23T09:16:53.913Z,49.05
2022-08-23T09:19:23.048Z,46.21
2022-08-23T09:22:02.383Z,45.27
2022-08-23T09:24:30.604Z,47.09
2022-08-23T09:26:57.585Z,45.51
2022-08-23T09:29:36.228Z,45.48
2022-08-23T09:32:07.360Z,44.96
2022-08-23T09:34:42.571Z,44.09
2022-08-23T09:37:16.298Z,44.66
2022-08-23T09:39:51.840Z,46.65
2022-08-23T09:42:29.717Z,49.76
2022-08-23T09:44:57.016Z,47.16
2022-08-23T09:47:33.812Z,44.62
2022-08-23T09:50:39.859Z,44.10
2022-08-23T09:53:12.159Z,45.21
2022-08-23T09:55:48.618Z,44.33
2022-08-23T09:58:21.998Z,42.60
2022-08-23T10:01:07.607Z,41.75
2022-08-23T10:03:34.194Z,42.43
2022-08-23T10:06:02.413Z,43.37
2022-08-23T10:08:33.571Z,45.35
2022-08-23T10:11:05.941Z,42.91
2022-08-23T10:13:36.679Z,44.00
2022-08-23T10:16:25.977Z,43.16
2022-08-23T10:19:13.390Z,42.89
2022-08-23T10:21:57.467Z,42.00
2022-08-23T10:24:28.244Z,41.50
2022-08-23T10:27:45.969Z,42.40
2022-08-23T10:30:17.244Z,42.25
2022-08-23T10:33:03.723Z,40.64
2022-08-23T10:35:53.861Z,40.54
2022-08-23T10:38:38.396Z,39.34
2022-08-23T10:41:41.948Z,41.32
2022-08-23T10:44:42.612Z,42.29
2022-08-23T10:47:27.496Z,40.00
2022-08-23T10:49:55.896Z,41.91
2022-08-23T10:52:31.096Z,39.17
2022-08-23T10:55:17.151Z,37.88
2022-08-23T10:57:47.614Z,40.98
2022-08-23T11:00:21.600Z,37.93
2022-08-23T11:03:03.277Z,37.64
2022-08-23T11:05:33.707Z,39.03
2022-08-23T11:08:05.557Z,37.82
2022-08-23T11:10:53.576Z,37.15
2022-08-23T11:13:29.481Z,37.41
2022-08-23T11:16:01.035Z,37.56
2022-08-23T11:18:33.822Z,38.17
2022-08-23T11:21:10.782Z,41.66
2022-08-23T11:23:47.810Z,38.26
2022-08-23T11:26:28.371Z,41.31
2022-08-23T11:29:01.131Z,37.33
2022-08-23T11:31:31.999Z,39.83
2022-08-23T11:34:11.227Z,36.84
2022-08-23T11:36:38.610Z,38.54
2022-08-23T11:39:11.537Z,38.55
2022-08-23T11:41:55.935Z,39.01
2022-08-23T11:44:38.342Z,37.32
2022-08-23T11:47:11.138Z,39.16
2022-08-23T11:49:44.223Z,37.80
2022-08-23T11:52:47.457Z,37.57
2022-08-23T11:55:17.551Z,36.30
2022-08-23T11:58:08.734Z,36.50
2022-08-23T12:00:47.421Z,36.12
2022-08-23T12:03:32.490Z,35.65
2022-08-23T12:06:08.227Z,34.55
2022-08-23T12:08:51.704Z,34.48
2022-08-23T12:11:20.140Z,36.18
2022-08-23T12:13:56.977Z,35.22
2022-08-23T12:16:25.966Z,39.25
2022-08-23T12:19:00.961Z,35.15
2022-08-23T12:21:40.208Z,38.51
2022-08-23T12:24:32.306Z,36.09
2022-08-23T12:27:21.445Z,35.70
2022-08-23T12:30:11.124Z,34.04
2022-08-23T12:33:23.649Z,34.99
2022-08-23T12:36:16.711Z,39.04
2022-08-23T12:39:09.232Z,36.96
2022-08-23T12:41:48.701Z,34.30
2022-08-23T12:44:20.206Z,32.94
2022-08-23T12:46:49.561Z,33.20
2022-08-23T12:49:35.047Z,33.37
2022-08-23T12:52:08.231Z,32.88
2022-08-23T12:54:34.650Z,32.34
2022-08-23T12:57:01.956Z,32.78
2022-08-23T12:59:40.174Z,32.83
2022-08-23T13:02:18.416Z,33.44
2022-08-23T13:04:44.901Z,34.76
2022-08-23T13:07:19.682Z,32.49
2022-08-23T13:09:53.683Z,33.29
2022-08-23T13:12:21.913Z,32.62
2022-08-23T13:14:51.190Z,33.45
2022-08-23T13:17:36.667Z,38.05
2022-08-23T13:20:04.094Z,34.34
2022-08-23T13:22:55.636Z,34.05
2022-08-23T13:25:31.584Z,33.85
2022-08-23T13:28:06.631Z,34.25
2022-08-23T13:30:36.726Z,34.44
2022-08-23T13:33:07.659Z,31.79
2022-08-23T13:35:37.748Z,34.86
2022-08-23T13:38:18.299Z,34.77
2022-08-23T13:41:03.781Z,34.53
2022-08-23T13:43:45.441Z,32.67
2022-08-23T13:46:23.123Z,31.13
2022-08-23T13:48:53.033Z,32.44
2022-08-23T13:52:24.603Z,32.96
2022-08-23T13:54:50.893Z,30.97
2022-08-23T13:57:20.765Z,30.71
2022-08-23T13:59:55.047Z,29.99
2022-08-23T14:02:23.833Z,32.52
2022-08-23T14:04:50.928Z,30.26
2022-08-23T14:07:18.255Z,29.61
2022-08-23T14:09:45.231Z,33.12
2022-08-23T14:12:17.134Z,32.80
2022-08-23T14:14:45.717Z,34.75
2022-08-23T14:17:12.853Z,31.15
2022-08-23T14:22:33.105Z,32.66
2022-08-23T14:24:59.590Z,33.21
2022-08-23T14:27:26.357Z,31.96
2022-08-23T14:29:52.910Z,31.97
2022-08-23T14:32:19.446Z,33.84
2022-08-23T14:34:45.922Z,31.96
2022-08-23T14:39:59.485Z,31.12
2022-08-23T14:42:26.293Z,31.93
2022-08-23T14:44:52.857Z,32.00
2022-08-23T14:47:19.556Z,30.09
2022-08-23T14:49:46.128Z,32.65
2022-08-23T14:52:14.621Z,31.20
2022-08-23T14:54:42.039Z,30.59
2022-08-23T14:57:08.558Z,33.26
2022-08-23T14:59:35.581Z,33.59
2022-08-23T15:02:03.658Z,32.57
2022-08-23T15:04:34.646Z,33.23
2022-08-23T15:07:19.105Z,33.03
2022-08-23T15:09:51.281Z,32.89
2022-08-23T15:15:12.131Z,32.63
2022-08-23T15:17:52.148Z,35.30
2022-08-23T15:20:25.350Z,34.25
2022-08-23T15:23:05.463Z,34.51
2022-08-23T15:25:35.363Z,33.86
2022-08-23T15:28:03.484Z,31.10
2022-08-23T15:30:33.510Z,31.74
2022-08-23T15:33:00.579Z,31.94
2022-08-23T15:35:28.658Z,36.83
2022-08-23T15:37:57.269Z,38.00
2022-08-23T15:40:25.602Z,34.90
2022-08-23T15:42:52.414Z,34.03
2022-08-23T15:45:19.520Z,36.56
2022-08-23T15:47:53.172Z,35.67
2022-08-23T15:50:23.764Z,35.74
2022-08-23T15:52:50.839Z,35.08
2022-08-23T15:55:18.238Z,35.34
2022-08-23T15:57:48.501Z,34.03
2022-08-23T16:00:18.605Z,35.36
2022-08-23T16:03:18.792Z,35.31
2022-08-23T16:05:33.087Z,34.71
2022-08-23T16:08:00.070Z,34.03
2022-08-23T16:10:28.328Z,35.14
2022-08-23T16:12:55.281Z,36.17
2022-08-23T16:15:22.150Z,34.09
2022-08-23T16:17:48.968Z,32.79
2022-08-23T16:20:15.586Z,37.50
2022-08-23T16:22:42.139Z,36.60
2022-08-23T16:25:09.396Z,34.29
2022-08-23T16:27:36.537Z,35.49
2022-08-23T16:30:05.369Z,33.99
2022-08-23T16:32:32.113Z,34.75
2022-08-23T16:34:58.617Z,34.87
2022-08-23T16:37:25.540Z,33.62
2022-08-23T16:39:52.302Z,33.75
2022-08-23T16:42:19.002Z,36.43
2022-08-23T16:44:45.517Z,35.94
2022-08-23T16:47:12.763Z,34.67
2022-08-23T16:49:40.026Z,35.46
2022-08-23T16:52:06.840Z,37.12
2022-08-23T16:54:33.442Z,35.89
2022-08-23T16:57:00.006Z,36.02
2022-08-23T16:59:26.484Z,36.55
2022-08-23T17:01:58.808Z,37.10
2022-08-23T17:04:30.377Z,36.84
2022-08-23T17:06:58.032Z,35.45
2022-08-23T17:09:27.881Z,35.84
2022-08-23T17:11:58.592Z,36.15
2022-08-23T17:14:26.171Z,35.44
2022-08-23T17:16:53.043Z,35.44
2022-08-23T17:19:19.681Z,36.53
2022-08-23T17:21:46.194Z,34.98
2022-08-23T17:24:12.797Z,37.57
2022-08-23T17:26:39.591Z,37.50
2022-08-23T17:29:09.311Z,37.29
2022-08-23T17:31:37.863Z,36.98
2022-08-23T17:34:05.357Z,34.74
2022-08-23T17:36:47.630Z,34.50
2022-08-23T17:39:17.738Z,35.11
2022-08-23T17:41:45.652Z,35.35
2022-08-23T17:44:12.812Z,35.78
2022-08-23T17:46:41.616Z,37.20
2022-08-23T17:49:09.164Z,35.46
2022-08-23T17:51:36.828Z,35.86
2022-08-23T17:54:04.928Z,35.96
2022-08-23T17:56:31.489Z,36.34
2022-08-23T17:58:58.137Z,38.02
2022-08-23T18:01:24.745Z,37.76
2022-08-23T18:03:51.275Z,38.47
2022-08-23T18:06:18.199Z,38.83
2022-08-23T18:08:45.998Z,38.35
2022-08-23T18:11:13.783Z,40.41
2022-08-23T18:13:40.359Z,40.75
2022-08-23T18:16:07.638Z,41.68
2022-08-23T18:18:34.565Z,42.41
2022-08-23T18:21:06.220Z,42.13
2022-08-23T18:23:32.845Z,42.14
2022-08-23T18:26:08.555Z,42.91
2022-08-23T18:28:35.241Z,43.19
2022-08-23T18:31:03.717Z,44.01
2022-08-23T18:33:46.321Z,44.97
2022-08-23T18:36:13.402Z,44.04
2022-08-23T18:38:39.936Z,43.99
2022-08-23T18:41:06.638Z,44.38
2022-08-23T18:43:37.596Z,44.85
2022-08-23T18:46:05.352Z,45.08
2022-08-23T18:48:32.051Z,44.93
2022-08-23T18:50:58.621Z,44.70
2022-08-23T18:53:25.230Z,45.19
2022-08-23T18:55:52.401Z,45.41
2022-08-23T18:58:20.041Z,45.70
2022-08-23T19:00:47.801Z,46.43
2022-08-23T19:03:17.728Z,47.13
2022-08-23T19:05:45.300Z,47.40
2022-08-23T19:08:12.759Z,47.99
2022-08-23T19:10:41.392Z,47.68
2022-08-23T19:13:09.105Z,46.02
2022-08-23T19:15:36.890Z,46.54
2022-08-23T19:18:04.267Z,46.76
2022-08-23T19:20:30.806Z,48.13
2022-08-23T19:22:57.594Z,47.47
2022-08-23T19:25:24.869Z,45.93
2022-08-23T19:27:51.954Z,47.19
2022-08-23T19:30:18.552Z,48.23
2022-08-23T19:32:45.209Z,47.46
2022-08-23T19:35:13.649Z,47.17
2022-08-23T19:37:40.152Z,46.90
2022-08-23T19:40:07.659Z,47.46
2022-08-23T19:42:37.018Z,46.93
2022-08-23T19:45:04.933Z,46.76
2022-08-23T19:47:31.482Z,44.54
2022-08-23T19:49:58.672Z,45.15
2022-08-23T19:52:25.481Z,46.78
2022-08-23T19:54:51.962Z,45.94
2022-08-23T19:57:18.494Z,46.12
2022-08-23T19:59:45.448Z,45.92
2022-08-23T20:02:13.857Z,46.05
2022-08-23T20:04:40.471Z,46.12
2022-08-23T20:07:07.825Z,47.39
2022-08-23T20:09:50.673Z,47.98
2022-08-23T20:12:17.692Z,46.82
2022-08-23T20:14:46.022Z,47.42
2022-08-23T20:17:12.873Z,47.11
2022-08-23T20:19:43.784Z,46.69
2022-08-23T20:22:37.629Z,47.53
2022-08-23T20:25:36.063Z,46.54
2022-08-23T20:28:08.794Z,47.00
2022-08-23T20:30:36.247Z,47.81
2022-08-23T20:33:03.768Z,47.55
2022-08-23T20:35:30.492Z,47.12
2022-08-23T20:38:08.387Z,47.00
2022-08-23T20:40:54.083Z,46.86
2022-08-23T20:43:27.374Z,47.08
2022-08-23T20:45:54.698Z,47.78
2022-08-23T20:48:21.926Z,48.40
2022-08-23T20:50:51.930Z,48.58
2022-08-23T20:53:18.673Z,48.19
2022-08-23T20:55:46.115Z,47.83
2022-08-23T20:58:16.045Z,47.09
2022-08-23T21:00:42.594Z,47.84
2022-08-23T21:03:09.353Z,47.78
2022-08-23T21:05:35.860Z,48.68
2022-08-23T21:08:03.461Z,48.01
2022-08-23T21:10:30.677Z,46.50
2022-08-23T21:12:57.211Z,45.50
2022-08-23T21:15:23.719Z,46.15
2022-08-23T21:17:50.217Z,46.96
2022-08-23T21:20:16.817Z,46.80
2022-08-23T21:22:43.472Z,46.18
2022-08-23T21:25:10.221Z,46.02
2022-08-23T21:27:36.801Z,44.97
2022-08-23T21:30:05.633Z,45.16
2022-08-23T21:32:32.509Z,46.26
2022-08-23T21:34:59.612Z,46.56
2022-08-23T21:37:26.713Z,46.38
2022-08-23T21:39:53.243Z,46.24
2022-08-23T21:42:23.143Z,45.58
2022-08-23T21:44:50.278Z,46.25
2022-08-23T21:47:16.769Z,45.07
2022-08-23T21:49:43.476Z,45.88
2022-08-23T21:52:09.949Z,46.44
2022-08-23T21:54:40.220Z,46.03
2022-08-23T21:57:09.386Z,47.22
2022-08-23T21:59:35.912Z,46.02
2022-08-23T22:02:02.622Z,45.91
2022-08-23T22:04:30.096Z,45.90
2022-08-23T22:06:59.920Z,45.62
2022-08-23T22:09:31.204Z,46.51
2022-08-23T22:12:00.336Z,46.89
2022-08-23T22:14:31.301Z,47.01
2022-08-23T22:16:59.187Z,46.79
2022-08-23T22:19:25.749Z,47.00
2022-08-23T22:21:52.794Z,47.05
2022-08-23T22:24:25.260Z,48.27
2022-08-23T22:26:52.788Z,47.71
2022-08-23T22:29:19.389Z,47.56
2022-08-23T22:31:47.730Z,48.30
2022-08-23T22:34:14.674Z,48.17
2022-08-23T22:36:42.061Z,47.90
2022-08-23T22:39:08.991Z,47.39
2022-08-23T22:41:35.519Z,46.96
2022-08-23T22:44:03.556Z,47.69
2022-08-23T22:46:31.906Z,47.92
2022-08-23T22:48:58.468Z,47.66
2022-08-23T22:51:28.667Z,48.29
2022-08-23T22:53:58.864Z,48.06
2022-08-23T22:56:29.369Z,48.50
2022-08-23T22:58:56.463Z,48.72
2022-08-23T23:01:34.147Z,48.17
2022-08-23T23:04:02.492Z,48.01
2022-08-23T23:06:29.593Z,48.26
2022-08-23T23:08:56.722Z,48.45
2022-08-23T23:11:24.172Z,48.14
2022-08-23T23:13:51.155Z,48.27
2022-08-23T23:16:21.554Z,47.89
2022-08-23T23:19:11.391Z,48.00
2022-08-23T23:21:41.498Z,48.60
2022-08-23T23:24:10.649Z,49.28
2022-08-23T23:26:38.083Z,48.22
2022-08-23T23:29:06.322Z,48.40
2022-08-23T23:31:32.798Z,48.69
2022-08-23T23:33:59.306Z,48.34
2022-08-23T23:36:25.870Z,48.63
2022-08-23T23:38:52.556Z,48.43
2022-08-23T23:41:21.166Z,48.83
2022-08-23T23:43:47.740Z,48.71
2022-08-23T23:46:15.940Z,49.01
2022-08-23T23:48:44.666Z,49.43
2022-08-23T23:51:14.256Z,48.50
2022-08-23T23:53:41.148Z,49.28
2022-08-23T23:56:10.497Z,49.72
2022-08-23T23:58:37.948Z,48.93
